createdAt,value
2022-10-19T00:01:36.838Z,11.40
2022-10-19T00:04:07.890Z,11.48
2022-10-19T00:06:36.738Z,11.56
2022-10-19T00:09:07.808Z,11.57
2022-10-19T00:11:37.029Z,11.50
2022-10-19T00:14:04.301Z,11.60
2022-10-19T00:16:34.170Z,11.81
2022-10-19T00:19:03.249Z,11.55
2022-10-19T00:21:30.282Z,11.46
2022-10-19T00:23:57.119Z,11.24
2022-10-19T00:26:23.716Z,11.24
2022-10-19T00:28:52.851Z,11.27
2022-10-19T00:31:19.476Z,11.03
2022-10-19T00:33:47.086Z,10.89
2022-10-19T00:36:34.964Z,10.85
2022-10-19T00:39:03.484Z,10.74
2022-10-19T00:41:32.301Z,10.70
2022-10-19T00:44:12.489Z,10.81
2022-10-19T00:46:41.787Z,10.92
2022-10-19T00:49:13.067Z,10.98
2022-10-19T00:51:43.835Z,11.09
2022-10-19T00:54:11.168Z,11.04
2022-10-19T00:56:40.750Z,11.01
2022-10-19T00:59:08.616Z,11.03
2022-10-19T01:01:36.014Z,10.90
2022-10-19T01:04:03.813Z,10.97
2022-10-19T01:06:31.168Z,10.88
2022-10-19T01:08:57.740Z,10.85
2022-10-19T01:11:52.336Z,10.84
2022-10-19T01:14:34.045Z,10.77
2022-10-19T01:17:23.237Z,10.72
2022-10-19T01:20:17.915Z,10.32
2022-10-19T01:23:30.622Z,10.43
2022-10-19T01:26:18.589Z,10.57
2022-10-19T01:29:04.294Z,10.70
2022-10-19T01:31:36.538Z,10.83
2022-10-19T01:34:13.574Z,10.84
2022-10-19T01:37:05.080Z,10.79
2022-10-19T01:39:53.661Z,10.67
2022-10-19T01:42:32.117Z,10.72
2022-10-19T01:45:13.909Z,10.70
2022-10-19T01:47:51.923Z,10.47
2022-10-19T01:50:27.317Z,10.25
2022-10-19T01:52:56.003Z,10.39
2022-10-19T01:55:26.051Z,10.65
2022-10-19T01:57:58.355Z,10.86
2022-10-19T02:00:26.818Z,10.78
2022-10-19T02:02:54.730Z,10.78
2022-10-19T02:05:24.361Z,10.72
2022-10-19T02:07:56.060Z,10.59
2022-10-19T02:10:23.702Z,10.67
2022-10-19T02:12:51.929Z,10.47
2022-10-19T02:15:22.490Z,10.45
2022-10-19T02:17:53.136Z,10.49
2022-10-19T02:20:20.316Z,10.43
2022-10-19T02:22:46.925Z,10.39
2022-10-19T02:25:13.787Z,10.02
2022-10-19T02:27:44.541Z,9.72
2022-10-19T02:30:15.485Z,9.77
2022-10-19T02:32:43.345Z,9.76
2022-10-19T02:35:11.962Z,9.93
2022-10-19T02:37:39.130Z,10.08
2022-10-19T02:40:06.358Z,10.27
2022-10-19T02:42:38.671Z,10.27
2022-10-19T02:45:05.171Z,10.02
2022-10-19T02:47:36.502Z,9.76
2022-10-19T02:50:08.012Z,9.52
2022-10-19T02:52:37.605Z,9.36
2022-10-19T02:55:06.452Z,9.18
2022-10-19T02:57:33.346Z,9.15
2022-10-19T03:00:00.218Z,9.20
2022-10-19T03:02:27.121Z,9.52
2022-10-19T03:04:53.684Z,9.63
2022-10-19T03:07:21.579Z,9.54
2022-10-19T03:09:48.917Z,9.60
2022-10-19T03:12:15.899Z,9.58
2022-10-19T03:14:42.470Z,9.56
2022-10-19T03:17:09.210Z,9.26
2022-10-19T03:19:36.486Z,9.07
2022-10-19T03:22:03.929Z,8.82
2022-10-19T03:24:31.201Z,8.72
2022-10-19T03:26:57.773Z,8.71
2022-10-19T03:29:24.366Z,8.58
2022-10-19T03:31:51.149Z,8.56
2022-10-19T03:34:17.738Z,8.57
2022-10-19T03:36:44.366Z,8.64
2022-10-19T03:39:13.770Z,8.59
2022-10-19T03:41:40.674Z,8.65
2022-10-19T03:44:08.284Z,8.52
2022-10-19T03:46:35.750Z,8.46
2022-10-19T03:49:02.966Z,8.39
2022-10-19T03:51:31.228Z,8.32
2022-10-19T03:54:02.986Z,8.24
2022-10-19T03:56:30.928Z,8.15
2022-10-19T03:58:59.522Z,8.04
2022-10-19T04:01:29.607Z,8.22
2022-10-19T04:03:58.584Z,8.37
2022-10-19T04:06:27.919Z,8.23
2022-10-19T04:08:54.962Z,8.17
2022-10-19T04:11:24.229Z,8.10
2022-10-19T04:13:52.361Z,8.15
2022-10-19T04:16:20.241Z,8.18
2022-10-19T04:18:47.178Z,8.34
2022-10-19T04:21:24.235Z,8.38
2022-10-19T04:23:53.251Z,8.41
2022-10-19T04:26:20.283Z,8.37
2022-10-19T04:28:47.322Z,8.31
2022-10-19T04:31:14.043Z,8.37
2022-10-19T04:33:41.733Z,8.35
2022-10-19T04:36:12.994Z,8.36
2022-10-19T04:38:39.731Z,8.43
2022-10-19T04:41:12.317Z,8.37
2022-10-19T04:43:39.220Z,8.33
2022-10-19T04:46:13.110Z,8.29
2022-10-19T04:48:40.172Z,8.22
2022-10-19T04:51:07.795Z,8.32
2022-10-19T04:53:35.191Z,8.32
2022-10-19T04:56:05.674Z,8.31
2022-10-19T04:58:32.384Z,8.29
2022-10-19T05:00:59.131Z,8.26
2022-10-19T05:03:25.690Z,8.38
2022-10-19T05:05:52.225Z,8.39
2022-10-19T05:08:18.760Z,8.36
2022-10-19T05:10:47.609Z,8.30
2022-10-19T05:13:14.711Z,8.27
2022-10-19T05:15:41.401Z,8.23
2022-10-19T05:18:08.096Z,8.25
2022-10-19T05:20:34.742Z,8.24
2022-10-19T05:23:06.171Z,8.25
2022-10-19T05:25:34.065Z,8.24
2022-10-19T05:28:00.606Z,8.18
2022-10-19T05:30:27.136Z,8.17
2022-10-19T05:32:53.681Z,8.15
2022-10-19T05:35:22.600Z,8.14
2022-10-19T05:37:53.647Z,8.16
2022-10-19T05:40:20.214Z,8.23
2022-10-19T05:42:46.832Z,8.28
2022-10-19T05:45:13.390Z,8.37
2022-10-19T05:47:39.925Z,8.17
2022-10-19T05:50:06.797Z,8.03
2022-10-19T05:52:33.469Z,8.02
2022-10-19T05:54:59.999Z,8.18
2022-10-19T05:57:26.666Z,8.04
2022-10-19T05:59:56.667Z,8.01
2022-10-19T06:02:23.504Z,8.00
2022-10-19T06:04:50.254Z,7.98
2022-10-19T06:07:16.872Z,8.00
2022-10-19T06:09:43.488Z,8.02
2022-10-19T06:12:10.076Z,8.05
2022-10-19T06:14:36.697Z,8.09
2022-10-19T06:17:04.199Z,8.17
2022-10-19T06:19:30.780Z,8.06
2022-10-19T06:21:57.304Z,7.98
2022-10-19T06:24:24.075Z,7.93
2022-10-19T06:26:50.609Z,7.94
2022-10-19T06:29:17.159Z,7.94
2022-10-19T06:31:43.700Z,7.98
2022-10-19T06:34:10.323Z,8.19
2022-10-19T06:36:36.978Z,8.44
2022-10-19T06:39:04.632Z,8.58
2022-10-19T06:41:31.611Z,8.87
2022-10-19T06:44:13.207Z,9.12
2022-10-19T06:46:39.752Z,9.20
2022-10-19T06:49:06.299Z,9.33
2022-10-19T06:51:34.236Z,9.46
2022-10-19T06:54:01.081Z,9.78
2022-10-19T06:56:27.710Z,9.87
2022-10-19T06:58:55.304Z,10.03
2022-10-19T07:01:22.437Z,10.32
2022-10-19T07:03:51.801Z,10.27
2022-10-19T07:06:18.924Z,10.52
2022-10-19T07:08:45.700Z,10.51
2022-10-19T07:11:16.599Z,10.13
2022-10-19T07:13:43.475Z,10.22
2022-10-19T07:16:16.069Z,10.18
2022-10-19T07:18:46.595Z,10.40
2022-10-19T07:21:15.235Z,10.32
2022-10-19T07:23:43.497Z,9.91
2022-10-19T07:26:21.368Z,9.49
2022-10-19T07:28:48.240Z,9.27
2022-10-19T07:31:18.019Z,9.34
2022-10-19T07:33:45.100Z,9.75
2022-10-19T07:36:13.854Z,9.96
2022-10-19T07:38:40.667Z,10.08
2022-10-19T07:41:10.229Z,9.59
2022-10-19T07:43:36.909Z,9.34
2022-10-19T07:46:09.434Z,9.28
2022-10-19T07:48:36.140Z,9.21
2022-10-19T07:51:05.670Z,9.11
2022-10-19T07:53:33.044Z,9.03
2022-10-19T07:56:07.394Z,8.91
2022-10-19T07:58:34.710Z,8.89
2022-10-19T08:01:06.132Z,8.84
2022-10-19T08:06:21.836Z,9.06
2022-10-19T08:08:49.141Z,9.10
2022-10-19T08:11:24.066Z,9.33
2022-10-19T08:13:51.611Z,9.29
2022-10-19T08:16:42.216Z,9.40
2022-10-19T08:19:14.019Z,9.39
2022-10-19T08:21:42.877Z,9.49
2022-10-19T08:24:10.897Z,9.70
2022-10-19T08:26:39.033Z,10.27
2022-10-19T08:29:08.711Z,10.49
2022-10-19T08:31:35.390Z,10.98
2022-10-19T08:34:02.469Z,11.55
2022-10-19T08:36:31.329Z,11.03
2022-10-19T08:38:58.911Z,10.84
2022-10-19T08:41:40.590Z,11.00
2022-10-19T08:44:10.297Z,10.91
2022-10-19T08:46:46.298Z,10.76
2022-10-19T08:49:19.154Z,10.64
2022-10-19T08:51:51.626Z,11.17
2022-10-19T08:54:18.958Z,11.28
2022-10-19T08:57:24.451Z,11.19
2022-10-19T09:00:07.078Z,11.33
2022-10-19T09:02:45.669Z,11.76
2022-10-19T09:05:23.156Z,11.60
2022-10-19T09:07:53.584Z,11.25
2022-10-19T09:10:31.602Z,11.56
2022-10-19T09:13:01.370Z,12.42
2022-10-19T09:15:33.853Z,12.31
2022-10-19T09:18:02.233Z,12.29
2022-10-19T09:20:45.817Z,12.02
2022-10-19T09:23:26.586Z,12.42
2022-10-19T09:25:53.354Z,12.20
2022-10-19T09:28:39.632Z,12.35
2022-10-19T09:31:14.252Z,12.55
2022-10-19T09:33:41.878Z,12.70
2022-10-19T09:36:15.018Z,13.24
2022-10-19T09:38:50.262Z,13.18
2022-10-19T09:41:20.439Z,12.59
2022-10-19T09:43:53.637Z,13.20
2022-10-19T09:46:39.371Z,13.35
2022-10-19T09:49:06.402Z,14.18
2022-10-19T09:51:59.435Z,14.03
2022-10-19T09:54:37.097Z,13.84
2022-10-19T09:57:04.640Z,14.66
2022-10-19T09:59:36.740Z,14.04
2022-10-19T10:02:15.301Z,14.76
2022-10-19T10:04:45.056Z,14.29
2022-10-19T10:07:17.620Z,13.33
2022-10-19T10:09:44.982Z,13.86
2022-10-19T10:12:15.249Z,14.09
2022-10-19T10:14:44.329Z,14.71
2022-10-19T10:17:20.614Z,14.75
2022-10-19T10:20:03.983Z,13.31
2022-10-19T10:22:37.683Z,13.91
2022-10-19T10:25:13.733Z,13.99
2022-10-19T10:27:40.534Z,14.19
2022-10-19T10:30:08.992Z,14.01
2022-10-19T10:32:48.175Z,14.33
2022-10-19T10:35:35.364Z,14.07
2022-10-19T10:38:09.613Z,13.84
2022-10-19T10:40:38.094Z,13.42
2022-10-19T10:43:15.612Z,13.27
2022-10-19T10:45:54.066Z,12.97
2022-10-19T10:48:32.794Z,13.06
2022-10-19T10:51:01.825Z,12.96
2022-10-19T10:53:34.927Z,12.94
2022-10-19T10:56:01.659Z,13.11
2022-10-19T10:58:48.031Z,12.75
2022-10-19T11:01:27.609Z,13.06
2022-10-19T11:04:03.512Z,13.72
2022-10-19T11:06:32.879Z,13.71
2022-10-19T11:09:07.958Z,14.32
2022-10-19T11:11:47.412Z,14.53
2022-10-19T11:14:27.026Z,14.34
2022-10-19T11:16:56.744Z,14.17
2022-10-19T11:19:35.376Z,14.94
2022-10-19T11:22:23.611Z,14.57
2022-10-19T11:24:55.886Z,14.59
2022-10-19T11:27:43.535Z,14.28
2022-10-19T11:30:17.744Z,14.81
2022-10-19T11:32:58.845Z,14.61
2022-10-19T11:35:41.321Z,14.90
2022-10-19T11:38:29.903Z,15.10
2022-10-19T11:41:18.217Z,15.01
2022-10-19T11:44:05.318Z,14.88
2022-10-19T11:46:54.302Z,14.81
2022-10-19T11:49:32.726Z,14.89
2022-10-19T11:52:22.004Z,14.98
2022-10-19T11:55:15.631Z,14.56
2022-10-19T11:57:54.960Z,14.69
2022-10-19T12:00:38.047Z,14.60
2022-10-19T12:03:34.030Z,15.07
2022-10-19T12:06:08.167Z,15.25
2022-10-19T12:09:10.453Z,15.24
2022-10-19T12:12:21.563Z,15.05
2022-10-19T12:14:52.980Z,15.23
2022-10-19T12:17:29.143Z,15.09
2022-10-19T12:20:03.230Z,15.39
2022-10-19T12:22:30.890Z,15.31
2022-10-19T12:25:00.552Z,14.96
2022-10-19T12:27:34.540Z,14.74
2022-10-19T12:30:27.937Z,15.25
2022-10-19T12:33:21.049Z,15.25
2022-10-19T12:36:03.910Z,14.97
2022-10-19T12:38:40.902Z,15.54
2022-10-19T12:41:36.627Z,14.98
2022-10-19T12:44:20.927Z,15.31
2022-10-19T12:46:53.080Z,15.09
2022-10-19T12:49:30.350Z,15.41
2022-10-19T12:51:58.964Z,15.22
2022-10-19T12:54:28.394Z,15.20
2022-10-19T12:56:57.373Z,15.01
2022-10-19T12:59:27.482Z,15.25
2022-10-19T13:01:54.844Z,15.56
2022-10-19T13:04:25.329Z,15.28
2022-10-19T13:06:57.910Z,15.09
2022-10-19T13:09:30.507Z,15.27
2022-10-19T13:12:19.458Z,15.11
2022-10-19T13:14:51.485Z,15.12
2022-10-19T13:17:34.404Z,15.13
2022-10-19T13:20:13.412Z,15.23
2022-10-19T13:22:52.967Z,15.15
2022-10-19T13:25:21.609Z,15.18
2022-10-19T13:27:49.991Z,15.33
2022-10-19T13:30:40.854Z,15.13
2022-10-19T13:33:24.659Z,14.94
2022-10-19T13:36:00.610Z,15.15
2022-10-19T13:38:31.581Z,15.23
2022-10-19T13:41:25.663Z,15.13
2022-10-19T13:44:01.162Z,14.85
2022-10-19T13:46:30.894Z,14.70
2022-10-19T13:49:06.512Z,14.77
2022-10-19T13:51:57.886Z,15.03
2022-10-19T13:54:42.760Z,14.75
2022-10-19T13:57:42.049Z,14.77
2022-10-19T14:00:19.829Z,14.63
2022-10-19T14:03:26.631Z,14.50
2022-10-19T14:06:07.765Z,14.42
2022-10-19T14:08:43.619Z,14.33
2022-10-19T14:11:24.610Z,14.11
2022-10-19T14:14:12.564Z,14.16
2022-10-19T14:16:56.000Z,14.15
2022-10-19T14:19:29.627Z,14.09
2022-10-19T14:22:00.029Z,14.05
2022-10-19T14:24:35.168Z,13.99
2022-10-19T14:27:06.773Z,13.90
2022-10-19T14:29:53.744Z,13.99
2022-10-19T14:32:25.355Z,14.05
2022-10-19T14:34:52.729Z,13.90
2022-10-19T14:37:22.217Z,14.04
2022-10-19T14:40:03.447Z,14.02
2022-10-19T14:42:44.869Z,13.82
2022-10-19T14:45:21.724Z,13.75
2022-10-19T14:48:03.344Z,13.71
2022-10-19T14:50:56.301Z,13.58
2022-10-19T14:53:54.731Z,13.59
2022-10-19T14:56:48.935Z,13.69
2022-10-19T14:59:34.214Z,13.71
2022-10-19T15:02:12.027Z,13.48
2022-10-19T15:04:39.123Z,13.46
2022-10-19T15:07:17.914Z,13.37
2022-10-19T15:09:52.096Z,13.34
2022-10-19T15:12:23.628Z,13.39
2022-10-19T15:14:50.475Z,13.30
2022-10-19T15:17:31.619Z,13.29
2022-10-19T15:20:01.372Z,13.22
2022-10-19T15:22:31.281Z,13.30
2022-10-19T15:25:08.705Z,13.32
2022-10-19T15:27:46.138Z,13.37
2022-10-19T15:30:18.723Z,13.56
2022-10-19T15:32:48.040Z,13.34
2022-10-19T15:35:32.062Z,13.44
2022-10-19T15:38:15.193Z,13.36
2022-10-19T15:40:43.666Z,13.34
2022-10-19T15:43:35.060Z,13.22
2022-10-19T15:46:03.303Z,13.29
2022-10-19T15:48:51.133Z,13.24
2022-10-19T15:51:23.274Z,13.31
2022-10-19T15:53:54.725Z,13.15
2022-10-19T15:56:23.317Z,13.19
2022-10-19T15:58:51.417Z,13.09
2022-10-19T16:01:20.657Z,13.12
2022-10-19T16:03:47.275Z,13.08
2022-10-19T16:06:14.017Z,13.07
2022-10-19T16:08:40.635Z,13.07
2022-10-19T16:11:13.274Z,13.04
2022-10-19T16:13:40.169Z,13.01
2022-10-19T16:16:12.097Z,12.99
2022-10-19T16:18:38.963Z,12.88
2022-10-19T16:21:05.879Z,12.84
2022-10-19T16:23:37.795Z,12.65
2022-10-19T16:26:07.876Z,12.63
2022-10-19T16:28:34.527Z,12.50
2022-10-19T16:31:01.159Z,12.47
2022-10-19T16:33:27.788Z,12.41
2022-10-19T16:35:54.327Z,12.37
2022-10-19T16:38:20.864Z,12.27
2022-10-19T16:40:47.464Z,12.15
2022-10-19T16:43:14.017Z,12.06
2022-10-19T16:45:44.021Z,12.09
2022-10-19T16:48:13.648Z,11.95
2022-10-19T16:50:40.249Z,11.94
2022-10-19T16:53:11.113Z,11.92
2022-10-19T16:55:39.856Z,11.95
2022-10-19T16:58:07.040Z,11.86
2022-10-19T17:00:35.374Z,11.77
2022-10-19T17:03:01.963Z,11.75
2022-10-19T17:05:28.485Z,11.71
2022-10-19T17:07:55.088Z,11.75
2022-10-19T17:10:21.681Z,11.64
2022-10-19T17:12:48.355Z,11.60
2022-10-19T17:15:41.354Z,11.55
2022-10-19T17:18:01.487Z,11.70
2022-10-19T17:20:28.092Z,11.70
2022-10-19T17:22:54.750Z,11.73
2022-10-19T17:25:21.274Z,11.80
2022-10-19T17:27:51.606Z,11.76
2022-10-19T17:30:18.791Z,11.75
2022-10-19T17:32:45.417Z,11.85
2022-10-19T17:35:11.992Z,11.91
2022-10-19T17:37:38.759Z,11.89
2022-10-19T17:40:06.081Z,11.85
2022-10-19T17:42:36.478Z,11.87
2022-10-19T17:45:03.523Z,11.95
2022-10-19T17:47:30.633Z,11.93
2022-10-19T17:49:57.187Z,11.83
2022-10-19T17:52:23.741Z,11.74
2022-10-19T17:55:11.178Z,11.68
2022-10-19T17:57:37.426Z,11.68
2022-10-19T18:00:05.794Z,11.71
2022-10-19T18:02:39.888Z,11.70
2022-10-19T18:05:06.845Z,11.75
2022-10-19T18:07:33.644Z,11.61
2022-10-19T18:10:00.456Z,11.55
2022-10-19T18:12:27.107Z,11.58
2022-10-19T18:14:53.754Z,11.51
2022-10-19T18:17:24.044Z,11.53
2022-10-19T18:19:53.496Z,11.46
2022-10-19T18:22:21.866Z,11.44
2022-10-19T18:24:49.557Z,11.39
2022-10-19T18:27:16.182Z,11.35
2022-10-19T18:29:42.822Z,11.28
2022-10-19T18:32:09.385Z,11.26
2022-10-19T18:34:36.040Z,11.23
2022-10-19T18:37:02.750Z,11.17
2022-10-19T18:39:29.318Z,11.17
2022-10-19T18:41:56.002Z,11.16
2022-10-19T18:44:26.316Z,11.12
2022-10-19T18:46:54.985Z,11.07
2022-10-19T18:49:21.645Z,11.03
2022-10-19T18:51:54.066Z,10.95
2022-10-19T18:54:22.363Z,10.93
2022-10-19T18:56:48.971Z,10.99
2022-10-19T18:59:15.724Z,11.03
2022-10-19T19:01:42.397Z,11.07
2022-10-19T19:04:09.667Z,11.02
2022-10-19T19:06:37.691Z,11.08
2022-10-19T19:09:09.308Z,11.10
2022-10-19T19:11:38.440Z,10.99
2022-10-19T19:14:16.815Z,11.03
2022-10-19T19:16:44.992Z,10.93
2022-10-19T19:19:14.089Z,10.96
2022-10-19T19:21:44.152Z,10.87
2022-10-19T19:24:14.537Z,10.95
2022-10-19T19:26:50.180Z,10.78
2022-10-19T19:29:18.058Z,10.79
2022-10-19T19:31:44.806Z,10.68
2022-10-19T19:34:12.058Z,10.66
2022-10-19T19:39:28.137Z,10.51
2022-10-19T19:41:54.773Z,10.57
2022-10-19T19:44:21.526Z,10.42
2022-10-19T19:46:48.195Z,10.55
2022-10-19T19:49:14.868Z,10.49
2022-10-19T19:51:41.639Z,10.46
2022-10-19T19:54:08.478Z,10.33
2022-10-19T19:56:37.195Z,10.36
2022-10-19T19:59:03.861Z,10.51
2022-10-19T20:01:31.244Z,10.56
2022-10-19T20:03:59.268Z,10.57
2022-10-19T20:06:26.220Z,10.53
2022-10-19T20:08:54.499Z,10.54
2022-10-19T20:11:22.039Z,10.47
2022-10-19T20:13:48.929Z,10.49
2022-10-19T20:16:25.155Z,10.51
2022-10-19T20:19:11.298Z,10.53
2022-10-19T20:21:38.251Z,10.55
2022-10-19T20:24:05.143Z,10.60
2022-10-19T20:26:31.906Z,10.62
2022-10-19T20:28:58.655Z,10.67
2022-10-19T20:31:25.573Z,10.61
2022-10-19T20:33:52.318Z,10.54
2022-10-19T20:36:24.520Z,10.46
2022-10-19T20:38:53.799Z,10.37
2022-10-19T20:41:22.770Z,10.23
2022-10-19T20:43:49.950Z,10.38
2022-10-19T20:46:22.284Z,10.32
2022-10-19T20:48:50.023Z,10.44
2022-10-19T20:51:30.919Z,10.34
2022-10-19T20:54:01.275Z,10.32
2022-10-19T20:56:30.722Z,10.29
2022-10-19T20:58:59.081Z,10.35
2022-10-19T21:01:26.588Z,10.26
2022-10-19T21:03:59.054Z,10.17
2022-10-19T21:06:27.127Z,10.14
2022-10-19T21:08:54.245Z,10.23
2022-10-19T21:11:26.649Z,10.14
2022-10-19T21:13:58.453Z,10.08
2022-10-19T21:16:30.283Z,9.99
2022-10-19T21:18:57.217Z,10.04
2022-10-19T21:21:29.302Z,10.02
2022-10-19T21:23:58.967Z,10.02
2022-10-19T21:26:26.894Z,10.00
2022-10-19T21:28:53.740Z,9.95
2022-10-19T21:31:22.058Z,9.97
2022-10-19T21:33:49.500Z,9.98
2022-10-19T21:36:16.162Z,9.95
2022-10-19T21:38:43.077Z,9.91
2022-10-19T21:41:20.932Z,9.94
2022-10-19T21:43:50.667Z,9.80
2022-10-19T21:46:19.643Z,9.83
2022-10-19T21:48:46.905Z,9.84
2022-10-19T21:51:32.109Z,9.75
2022-10-19T21:53:59.058Z,9.76
2022-10-19T21:56:25.761Z,9.74
2022-10-19T21:58:53.898Z,9.66
2022-10-19T22:01:22.884Z,9.65
2022-10-19T22:03:49.547Z,9.65
2022-10-19T22:06:16.262Z,9.60
2022-10-19T22:08:46.766Z,9.64
2022-10-19T22:11:14.373Z,9.60
2022-10-19T22:13:42.011Z,9.69
2022-10-19T22:16:12.564Z,9.58
2022-10-19T22:18:39.512Z,9.50
2022-10-19T22:21:09.606Z,9.57
2022-10-19T22:23:36.437Z,9.64
2022-10-19T22:26:11.942Z,9.64
2022-10-19T22:28:38.531Z,9.66
2022-10-19T22:31:05.151Z,9.68
2022-10-19T22:33:31.672Z,9.62
2022-10-19T22:36:00.754Z,9.56
2022-10-19T22:38:28.679Z,9.59
2022-10-19T22:40:55.229Z,9.51
2022-10-19T22:43:21.746Z,9.47
2022-10-19T22:45:49.672Z,9.45
2022-10-19T22:48:17.737Z,9.45
2022-10-19T22:50:45.235Z,9.44
2022-10-19T22:53:12.626Z,9.47
2022-10-19T22:55:39.816Z,9.40
2022-10-19T22:58:08.455Z,9.40
2022-10-19T23:00:35.435Z,9.39
2022-10-19T23:03:01.999Z,9.40
2022-10-19T23:05:28.641Z,9.43
2022-10-19T23:07:55.185Z,9.46
2022-10-19T23:10:21.827Z,9.34
2022-10-19T23:12:50.231Z,9.36
2022-10-19T23:15:17.211Z,9.34
2022-10-19T23:17:43.913Z,9.30
2022-10-19T23:20:11.497Z,9.29
2022-10-19T23:22:38.384Z,9.27
2022-10-19T23:25:05.440Z,9.26
2022-10-19T23:27:32.128Z,9.17
2022-10-19T23:29:59.326Z,9.25
2022-10-19T23:32:25.972Z,9.24
2022-10-19T23:34:52.562Z,9.23
2022-10-19T23:37:19.205Z,9.18
2022-10-19T23:39:45.765Z,9.16
2022-10-19T23:42:12.298Z,9.14
2022-10-19T23:44:38.866Z,9.13
2022-10-19T23:47:05.431Z,9.19
2022-10-19T23:49:32.024Z,9.19
2022-10-19T23:51:58.557Z,9.16
2022-10-19T23:54:25.134Z,9.09
2022-10-19T23:56:51.875Z,9.09
2022-10-19T23:59:18.473Z,9.18
